createdAt,value
2018-02-19T00:00:47.465Z,-1.38
2018-02-19T00:01:52.262Z,-1.34
2018-02-19T00:02:56.843Z,-1.39
2018-02-19T00:04:01.379Z,-1.27
2018-02-19T00:05:05.980Z,-1.32
2018-02-19T00:06:10.486Z,-1.26
2018-02-19T00:07:15.047Z,-1.29
2018-02-19T00:08:19.871Z,-1.35
2018-02-19T00:09:24.468Z,-1.41
2018-02-19T00:10:29.050Z,-1.48
2018-02-19T00:11:33.648Z,-1.62
2018-02-19T00:12:38.559Z,-1.69
2018-02-19T00:13:43.307Z,-1.60
2018-02-19T00:14:48.081Z,-1.48
2018-02-19T00:15:52.844Z,-1.45
2018-02-19T00:16:57.614Z,-1.38
2018-02-19T00:18:02.407Z,-1.29
2018-02-19T00:19:07.362Z,-1.31
2018-02-19T00:20:11.986Z,-1.48
2018-02-19T00:21:16.589Z,-1.46
2018-02-19T00:22:21.175Z,-1.58
2018-02-19T00:23:26.007Z,-1.61
2018-02-19T00:24:31.487Z,-1.64
2018-02-19T00:25:36.554Z,-1.67
2018-02-19T00:26:41.377Z,-1.59
2018-02-19T00:27:46.221Z,-1.53
2018-02-19T00:28:51.014Z,-1.45
2018-02-19T00:29:55.793Z,-1.56
2018-02-19T00:31:00.476Z,-1.72
2018-02-19T00:32:05.414Z,-1.67
2018-02-19T00:33:10.059Z,-1.67
2018-02-19T00:34:14.833Z,-1.62
2018-02-19T00:35:19.690Z,-1.61
2018-02-19T00:36:24.466Z,-1.56
2018-02-19T00:37:29.236Z,-1.60
2018-02-19T00:38:34.324Z,-1.59
2018-02-19T00:39:39.099Z,-1.55
2018-02-19T00:40:43.940Z,-1.60
2018-02-19T00:41:48.729Z,-1.74
2018-02-19T00:42:53.447Z,-1.74
2018-02-19T00:43:58.221Z,-1.77
2018-02-19T00:45:03.255Z,-1.72
2018-02-19T00:46:07.972Z,-1.62
2018-02-19T00:47:12.633Z,-1.59
2018-02-19T00:48:17.294Z,-1.54
2018-02-19T00:49:22.043Z,-1.56
2018-02-19T00:50:26.816Z,-1.48
2018-02-19T00:51:32.154Z,-1.45
2018-02-19T00:52:36.969Z,-1.49
2018-02-19T00:53:41.802Z,-1.47
2018-02-19T00:54:46.568Z,-1.42
2018-02-19T00:55:51.285Z,-1.32
2018-02-19T00:56:56.060Z,-1.24
2018-02-19T00:58:01.162Z,-1.28
2018-02-19T00:59:06.020Z,-1.35
2018-02-19T01:00:10.820Z,-1.29
2018-02-19T01:01:15.666Z,-1.23
2018-02-19T01:02:20.428Z,-1.09
2018-02-19T01:03:25.059Z,-1.16
2018-02-19T01:04:29.952Z,-1.16
2018-02-19T01:05:34.538Z,-1.24
2018-02-19T01:06:39.153Z,-1.48
2018-02-19T01:07:43.984Z,-1.62
2018-02-19T01:08:48.739Z,-1.68
2018-02-19T01:09:53.486Z,-1.55
2018-02-19T01:10:58.377Z,-1.50
2018-02-19T01:12:03.167Z,-1.59
2018-02-19T01:13:07.691Z,-1.58
2018-02-19T01:14:12.314Z,-1.54
2018-02-19T01:15:16.926Z,-1.57
2018-02-19T01:16:21.515Z,-1.58
2018-02-19T01:17:26.381Z,-1.60
2018-02-19T01:18:31.028Z,-1.57
2018-02-19T01:19:35.704Z,-1.59
2018-02-19T01:20:40.328Z,-1.56
2018-02-19T01:21:44.949Z,-1.56
2018-02-19T01:22:49.584Z,-1.47
2018-02-19T01:23:54.609Z,-1.43
2018-02-19T01:24:59.367Z,-1.40
2018-02-19T01:26:04.728Z,-1.36
2018-02-19T01:27:10.149Z,-1.32
2018-02-19T01:28:14.781Z,-1.34
2018-02-19T01:29:19.387Z,-1.33
2018-02-19T01:30:24.419Z,-1.28
2018-02-19T01:31:29.161Z,-1.29
2018-02-19T01:32:33.875Z,-1.19
2018-02-19T01:33:38.684Z,-1.14
2018-02-19T01:34:43.462Z,-1.11
2018-02-19T01:35:48.227Z,-1.14
2018-02-19T01:36:53.767Z,-1.09
2018-02-19T01:37:58.591Z,-1.08
2018-02-19T01:39:03.454Z,-1.15
2018-02-19T01:40:08.256Z,-1.40
2018-02-19T01:41:12.983Z,-1.72
2018-02-19T01:42:17.709Z,-1.80
2018-02-19T01:43:22.666Z,-1.63
2018-02-19T01:44:27.354Z,-1.48
2018-02-19T01:45:31.989Z,-1.46
2018-02-19T01:46:36.646Z,-1.51
2018-02-19T01:47:41.377Z,-1.48
2018-02-19T01:48:46.186Z,-1.39
2018-02-19T01:49:55.369Z,-1.37
2018-02-19T01:51:00.043Z,-1.31
2018-02-19T01:52:04.728Z,-1.27
2018-02-19T01:53:09.407Z,-1.23
2018-02-19T01:54:14.059Z,-1.23
2018-02-19T01:55:18.705Z,-1.20
2018-02-19T01:56:23.704Z,-1.20
2018-02-19T01:57:28.378Z,-1.19
2018-02-19T01:58:33.103Z,-1.17
2018-02-19T01:59:38.538Z,-1.10
2018-02-19T02:00:43.323Z,-1.06
2018-02-19T02:01:48.100Z,-1.11
2018-02-19T02:02:53.126Z,-1.16
2018-02-19T02:03:57.880Z,-1.21
2018-02-19T02:05:02.659Z,-1.23
2018-02-19T02:06:07.412Z,-1.16
2018-02-19T02:07:12.166Z,-1.21
2018-02-19T02:08:16.945Z,-1.21
2018-02-19T02:09:21.996Z,-1.12
2018-02-19T02:10:26.792Z,-1.06
2018-02-19T02:11:31.586Z,-0.99
2018-02-19T02:12:36.356Z,-0.97
2018-02-19T02:13:41.190Z,-0.86
2018-02-19T02:14:45.956Z,-0.82
2018-02-19T02:15:51.012Z,-0.74
2018-02-19T02:16:55.759Z,-0.74
2018-02-19T02:18:00.556Z,-0.70
2018-02-19T02:19:05.324Z,-0.77
2018-02-19T02:20:10.018Z,-0.75
2018-02-19T02:21:14.741Z,-0.77
2018-02-19T02:22:20.435Z,-0.85
2018-02-19T02:23:25.168Z,-0.85
2018-02-19T02:24:29.989Z,-0.87
2018-02-19T02:25:34.759Z,-1.08
2018-02-19T02:26:39.516Z,-1.03
2018-02-19T02:27:44.359Z,-1.12
2018-02-19T02:28:49.119Z,-1.14
2018-02-19T02:29:53.884Z,-1.33
2018-02-19T02:30:58.612Z,-1.47
2018-02-19T02:32:03.398Z,-1.37
2018-02-19T02:33:08.178Z,-1.18
2018-02-19T02:34:13.255Z,-1.08
2018-02-19T02:35:17.993Z,-1.04
2018-02-19T02:36:22.751Z,-0.98
2018-02-19T02:37:27.509Z,-0.90
2018-02-19T02:38:32.271Z,-0.91
2018-02-19T02:39:37.103Z,-0.89
2018-02-19T02:40:42.200Z,-0.89
2018-02-19T02:41:46.998Z,-0.94
2018-02-19T02:42:51.744Z,-0.87
2018-02-19T02:43:56.531Z,-0.88
2018-02-19T02:45:01.307Z,-0.86
2018-02-19T02:46:06.110Z,-0.81
2018-02-19T02:47:11.142Z,-0.74
2018-02-19T02:48:15.941Z,-0.72
2018-02-19T02:49:20.660Z,-0.73
2018-02-19T02:50:25.447Z,-0.95
2018-02-19T02:51:30.193Z,-0.90
2018-02-19T02:52:35.034Z,-0.89
2018-02-19T02:53:40.054Z,-0.87
2018-02-19T02:54:44.896Z,-0.77
2018-02-19T02:55:49.655Z,-0.81
2018-02-19T02:56:54.448Z,-0.77
2018-02-19T02:57:59.272Z,-0.78
2018-02-19T02:59:04.116Z,-0.75
2018-02-19T03:00:09.195Z,-0.84
2018-02-19T03:01:13.930Z,-0.93
2018-02-19T03:02:18.746Z,-0.98
2018-02-19T03:03:23.485Z,-0.86
2018-02-19T03:04:28.099Z,-0.88
2018-02-19T03:05:32.697Z,-0.87
2018-02-19T03:06:37.774Z,-0.82
2018-02-19T03:07:42.581Z,-0.95
2018-02-19T03:08:47.339Z,-0.90
2018-02-19T03:09:52.205Z,-1.02
2018-02-19T03:10:56.973Z,-1.14
2018-02-19T03:12:01.619Z,-1.17
2018-02-19T03:13:06.532Z,-1.09
2018-02-19T03:14:11.129Z,-1.09
2018-02-19T03:15:15.733Z,-1.06
2018-02-19T03:16:20.358Z,-1.04
2018-02-19T03:17:25.131Z,-1.04
2018-02-19T03:18:29.908Z,-1.06
2018-02-19T03:19:35.591Z,-1.04
2018-02-19T03:20:40.352Z,-0.98
2018-02-19T03:21:45.097Z,-1.02
2018-02-19T03:22:49.877Z,-1.08
2018-02-19T03:23:54.673Z,-1.10
2018-02-19T03:24:59.390Z,-1.16
2018-02-19T03:26:04.445Z,-1.14
2018-02-19T03:27:09.182Z,-1.09
2018-02-19T03:28:14.041Z,-0.99
2018-02-19T03:29:18.788Z,-0.89
2018-02-19T03:30:23.518Z,-0.84
2018-02-19T03:31:28.305Z,-0.84
2018-02-19T03:32:33.421Z,-0.78
2018-02-19T03:33:38.243Z,-0.84
2018-02-19T03:34:42.988Z,-0.74
2018-02-19T03:35:47.748Z,-0.70
2018-02-19T03:36:52.544Z,-0.71
2018-02-19T03:37:57.279Z,-0.64
2018-02-19T03:39:02.380Z,-0.60
2018-02-19T03:40:07.101Z,-0.65
2018-02-19T03:41:11.880Z,-0.73
2018-02-19T03:42:16.631Z,-0.77
2018-02-19T03:43:21.266Z,-0.89
2018-02-19T03:44:26.522Z,-0.90
2018-02-19T03:45:31.444Z,-0.88
2018-02-19T03:46:36.020Z,-1.02
2018-02-19T03:47:40.624Z,-1.02
2018-02-19T03:48:45.234Z,-1.02
2018-02-19T03:49:49.874Z,-1.04
2018-02-19T03:50:54.443Z,-1.01
2018-02-19T03:51:59.322Z,-0.92
2018-02-19T03:53:03.957Z,-0.93
2018-02-19T03:54:08.481Z,-0.99
2018-02-19T03:55:13.119Z,-0.99
2018-02-19T03:56:17.623Z,-0.99
2018-02-19T03:57:22.221Z,-1.02
2018-02-19T03:58:27.767Z,-0.96
2018-02-19T03:59:32.401Z,-0.93
2018-02-19T04:00:37.014Z,-0.96
2018-02-19T04:01:41.621Z,-0.97
2018-02-19T04:02:46.232Z,-0.93
2018-02-19T04:03:50.924Z,-0.95
2018-02-19T04:04:56.006Z,-0.89
2018-02-19T04:06:00.794Z,-0.95
2018-02-19T04:07:05.568Z,-0.89
2018-02-19T04:08:10.328Z,-0.87
2018-02-19T04:09:15.076Z,-0.88
2018-02-19T04:10:19.669Z,-0.96
2018-02-19T04:11:25.275Z,-0.99
2018-02-19T04:12:29.938Z,-1.00
2018-02-19T04:13:34.550Z,-0.98
2018-02-19T04:14:39.125Z,-0.96
2018-02-19T04:15:44.137Z,-0.96
2018-02-19T04:16:48.847Z,-0.91
2018-02-19T04:17:54.168Z,-0.91
2018-02-19T04:18:58.921Z,-0.92
2018-02-19T04:20:04.601Z,-0.95
2018-02-19T04:21:09.375Z,-0.99
2018-02-19T04:22:14.145Z,-0.93
2018-02-19T04:23:18.952Z,-0.91
2018-02-19T04:24:24.095Z,-0.89
2018-02-19T04:25:28.954Z,-0.89
2018-02-19T04:26:33.715Z,-0.86
2018-02-19T04:27:38.470Z,-0.82
2018-02-19T04:28:43.260Z,-0.80
2018-02-19T04:29:47.994Z,-0.82
2018-02-19T04:30:53.052Z,-0.78
2018-02-19T04:31:57.850Z,-0.74
2018-02-19T04:33:02.685Z,-0.76
2018-02-19T04:34:07.460Z,-0.72
2018-02-19T04:35:12.239Z,-0.74
2018-02-19T04:36:17.020Z,-0.76
2018-02-19T04:37:22.053Z,-0.75
2018-02-19T04:38:26.821Z,-0.70
2018-02-19T04:39:31.628Z,-0.65
2018-02-19T04:40:36.393Z,-0.60
2018-02-19T04:41:41.134Z,-0.55
2018-02-19T04:42:46.527Z,-0.51
2018-02-19T04:43:51.446Z,-0.56
2018-02-19T04:44:56.388Z,-0.62
2018-02-19T04:46:01.381Z,-0.69
2018-02-19T04:47:06.276Z,-0.75
2018-02-19T04:48:11.418Z,-0.80
2018-02-19T04:49:16.491Z,-0.84
2018-02-19T04:50:21.219Z,-0.85
2018-02-19T04:51:26.014Z,-0.81
2018-02-19T04:52:30.849Z,-0.74
2018-02-19T04:53:35.608Z,-0.68
2018-02-19T04:54:40.516Z,-0.68
2018-02-19T04:55:45.683Z,-0.68
2018-02-19T04:56:50.440Z,-0.64
2018-02-19T04:57:55.199Z,-0.58
2018-02-19T04:59:00.054Z,-0.59
2018-02-19T05:00:05.251Z,-0.63
2018-02-19T05:01:10.104Z,-0.67
2018-02-19T05:02:15.159Z,-0.72
2018-02-19T05:03:19.917Z,-0.67
2018-02-19T05:04:24.707Z,-0.59
2018-02-19T05:05:29.949Z,-0.55
2018-02-19T05:06:34.730Z,-0.58
2018-02-19T05:07:39.537Z,-0.53
2018-02-19T05:08:44.659Z,-0.48
2018-02-19T05:09:49.416Z,-0.45
2018-02-19T05:10:54.161Z,-0.51
2018-02-19T05:11:58.829Z,-0.52
2018-02-19T05:13:03.573Z,-0.54
2018-02-19T05:14:08.364Z,-0.56
2018-02-19T05:15:13.799Z,-0.53
2018-02-19T05:16:18.554Z,-0.58
2018-02-19T05:17:23.230Z,-0.65
2018-02-19T05:18:28.012Z,-0.74
2018-02-19T05:19:32.790Z,-0.75
2018-02-19T05:20:37.544Z,-0.81
2018-02-19T05:21:42.561Z,-0.78
2018-02-19T05:22:47.248Z,-0.70
2018-02-19T05:23:51.922Z,-0.65
2018-02-19T05:24:56.637Z,-0.64
2018-02-19T05:26:01.363Z,-0.62
2018-02-19T05:27:06.031Z,-0.84
2018-02-19T05:28:11.075Z,-0.86
2018-02-19T05:29:15.741Z,-0.90
2018-02-19T05:30:20.413Z,-0.90
2018-02-19T05:31:25.144Z,-0.93
2018-02-19T05:32:29.863Z,-0.95
2018-02-19T05:33:34.612Z,-0.91
2018-02-19T05:34:39.661Z,-0.86
2018-02-19T05:35:44.640Z,-0.87
2018-02-19T05:36:49.387Z,-0.89
2018-02-19T05:37:54.206Z,-0.89
2018-02-19T05:38:59.003Z,-0.89
2018-02-19T05:40:03.778Z,-0.88
2018-02-19T05:41:08.855Z,-0.84
2018-02-19T05:42:13.598Z,-0.82
2018-02-19T05:43:18.424Z,-0.81
2018-02-19T05:44:23.238Z,-0.83
2018-02-19T05:45:27.981Z,-0.84
2018-02-19T05:46:32.644Z,-0.86
2018-02-19T05:47:37.708Z,-0.78
2018-02-19T05:48:42.481Z,-0.80
2018-02-19T05:49:47.249Z,-0.83
2018-02-19T05:50:52.689Z,-0.86
2018-02-19T05:51:57.468Z,-0.87
2018-02-19T05:53:02.275Z,-0.87
2018-02-19T05:54:07.348Z,-0.78
2018-02-19T05:55:12.135Z,-0.72
2018-02-19T05:56:16.967Z,-0.67
2018-02-19T05:57:21.777Z,-0.60
2018-02-19T05:58:26.575Z,-0.66
2018-02-19T05:59:31.441Z,-0.54
2018-02-19T06:00:36.657Z,-0.44
2018-02-19T06:01:41.854Z,-0.38
2018-02-19T06:02:46.744Z,-0.38
2018-02-19T06:03:51.563Z,-0.47
2018-02-19T06:04:56.364Z,-0.46
2018-02-19T06:06:01.189Z,-0.51
2018-02-19T06:07:05.972Z,-0.52
2018-02-19T06:08:10.712Z,-0.60
2018-02-19T06:09:15.446Z,-0.59
2018-02-19T06:10:20.269Z,-0.58
2018-02-19T06:11:25.032Z,-0.53
2018-02-19T06:12:30.059Z,-0.45
2018-02-19T06:13:34.782Z,-0.38
2018-02-19T06:14:39.529Z,-0.33
2018-02-19T06:15:44.238Z,-0.27
2018-02-19T06:16:48.944Z,-0.32
2018-02-19T06:17:53.700Z,-0.45
2018-02-19T06:18:58.709Z,-0.55
2018-02-19T06:20:03.635Z,-0.66
2018-02-19T06:21:08.400Z,-0.76
2018-02-19T06:22:13.205Z,-0.89
2018-02-19T06:23:18.039Z,-0.89
2018-02-19T06:24:22.843Z,-0.85
2018-02-19T06:25:27.620Z,-0.85
2018-02-19T06:26:32.403Z,-0.84
2018-02-19T06:27:37.147Z,-0.85
2018-02-19T06:28:41.942Z,-0.81
2018-02-19T06:29:46.731Z,-0.74
2018-02-19T06:30:51.578Z,-0.71
2018-02-19T06:31:56.638Z,-0.62
2018-02-19T06:33:01.558Z,-0.59
2018-02-19T06:34:06.316Z,-0.56
2018-02-19T06:35:11.132Z,-0.54
2018-02-19T06:36:16.072Z,-0.52
2018-02-19T06:37:20.756Z,-0.51
2018-02-19T06:38:25.729Z,-0.52
2018-02-19T06:39:30.316Z,-0.49
2018-02-19T06:40:34.959Z,-0.46
2018-02-19T06:41:39.526Z,-0.42
2018-02-19T06:42:44.213Z,-0.40
2018-02-19T06:43:48.913Z,-0.40
2018-02-19T06:44:53.991Z,-0.41
2018-02-19T06:45:58.760Z,-0.42
2018-02-19T06:47:03.510Z,-0.44
2018-02-19T06:48:08.367Z,-0.42
2018-02-19T06:49:13.202Z,-0.41
2018-02-19T06:50:17.959Z,-0.52
2018-02-19T06:51:23.128Z,-0.54
2018-02-19T06:52:27.902Z,-0.57
2018-02-19T06:53:32.671Z,-0.51
2018-02-19T06:54:37.429Z,-0.49
2018-02-19T06:55:42.215Z,-0.43
2018-02-19T06:56:47.206Z,-0.36
2018-02-19T06:57:52.180Z,-0.36
2018-02-19T06:58:57.284Z,-0.43
2018-02-19T07:00:02.107Z,-0.41
2018-02-19T07:01:07.262Z,-0.39
2018-02-19T07:02:12.045Z,-0.37
2018-02-19T07:03:16.996Z,-0.36
2018-02-19T07:04:22.210Z,-0.31
2018-02-19T07:05:27.133Z,-0.31
2018-02-19T07:06:32.096Z,-0.29
2018-02-19T07:07:36.943Z,-0.40
2018-02-19T07:08:41.693Z,-0.37
2018-02-19T07:09:46.755Z,-0.35
2018-02-19T07:10:52.041Z,-0.23
2018-02-19T07:11:57.316Z,-0.20
2018-02-19T07:13:02.098Z,-0.20
2018-02-19T07:14:06.792Z,-0.21
2018-02-19T07:15:11.615Z,-0.20
2018-02-19T07:16:16.476Z,-0.20
2018-02-19T07:17:22.278Z,-0.16
2018-02-19T07:18:26.855Z,-0.11
2018-02-19T07:19:31.640Z,-0.13
2018-02-19T07:20:36.470Z,-0.17
2018-02-19T07:21:41.227Z,-0.17
2018-02-19T07:22:45.952Z,-0.19
2018-02-19T07:23:51.178Z,-0.16
2018-02-19T07:24:55.922Z,-0.28
2018-02-19T07:26:00.969Z,-0.19
2018-02-19T07:27:05.995Z,-0.13
2018-02-19T07:28:11.671Z,-0.08
2018-02-19T07:29:16.519Z,-0.05
2018-02-19T07:30:22.021Z,0.04
2018-02-19T07:31:26.873Z,0.12
2018-02-19T07:32:31.695Z,0.23
2018-02-19T07:33:36.470Z,0.32
2018-02-19T07:34:41.265Z,0.45
2018-02-19T07:35:46.452Z,0.52
2018-02-19T07:36:51.611Z,0.45
2018-02-19T07:37:56.344Z,0.37
2018-02-19T07:39:01.475Z,0.31
2018-02-19T07:40:06.242Z,0.35
2018-02-19T07:41:11.005Z,0.30
2018-02-19T07:42:15.674Z,0.08
2018-02-19T07:43:21.368Z,-0.06
2018-02-19T07:44:26.069Z,0.00
2018-02-19T07:45:31.392Z,0.12
2018-02-19T07:46:36.122Z,0.29
2018-02-19T07:47:40.817Z,0.42
2018-02-19T07:48:45.521Z,0.40
2018-02-19T07:49:50.603Z,0.49
2018-02-19T07:50:55.544Z,0.47
2018-02-19T07:52:00.296Z,0.39
2018-02-19T07:53:05.123Z,0.53
2018-02-19T07:54:09.933Z,0.39
2018-02-19T07:55:14.751Z,0.49
2018-02-19T07:56:19.884Z,0.64
2018-02-19T07:57:24.690Z,0.72
2018-02-19T07:58:29.449Z,0.79
2018-02-19T07:59:34.401Z,0.86
2018-02-19T08:00:39.316Z,0.85
2018-02-19T08:01:44.236Z,0.91
2018-02-19T08:02:49.243Z,1.07
2018-02-19T08:03:53.968Z,0.93
2018-02-19T08:04:58.656Z,0.94
2018-02-19T08:06:03.476Z,0.87
2018-02-19T08:07:08.307Z,0.89
2018-02-19T08:08:12.987Z,1.00
2018-02-19T08:09:18.028Z,1.04
2018-02-19T08:10:22.957Z,0.77
2018-02-19T08:11:27.704Z,0.63
2018-02-19T08:12:32.400Z,0.79
2018-02-19T08:13:37.119Z,0.78
2018-02-19T08:14:41.909Z,0.84
2018-02-19T08:15:46.974Z,0.85
2018-02-19T08:16:51.727Z,0.80
2018-02-19T08:17:56.457Z,0.63
2018-02-19T08:19:01.225Z,0.58
2018-02-19T08:20:06.021Z,0.55
2018-02-19T08:21:10.827Z,0.62
2018-02-19T08:22:15.882Z,0.60
2018-02-19T08:23:20.686Z,0.62
2018-02-19T08:24:25.503Z,0.54
2018-02-19T08:25:30.262Z,0.55
2018-02-19T08:26:35.008Z,0.61
2018-02-19T08:27:39.843Z,0.56
2018-02-19T08:28:45.146Z,0.61
2018-02-19T08:29:49.962Z,0.67
2018-02-19T08:30:54.715Z,0.71
2018-02-19T08:31:59.487Z,0.42
2018-02-19T08:33:04.436Z,0.31
2018-02-19T08:34:09.176Z,0.33
2018-02-19T08:35:14.449Z,0.35
2018-02-19T08:36:19.237Z,0.30
2018-02-19T08:37:24.087Z,0.32
2018-02-19T08:38:28.981Z,0.37
2018-02-19T08:39:33.855Z,0.25
2018-02-19T08:40:38.612Z,0.25
2018-02-19T08:41:43.698Z,0.22
2018-02-19T08:42:48.398Z,0.23
2018-02-19T08:43:53.082Z,0.34
2018-02-19T08:44:57.739Z,0.37
2018-02-19T08:46:02.356Z,0.47
2018-02-19T08:47:07.192Z,0.57
2018-02-19T08:48:12.486Z,0.75
2018-02-19T08:49:17.354Z,0.72
2018-02-19T08:50:22.103Z,0.33
2018-02-19T08:51:26.870Z,0.54
2018-02-19T08:52:31.694Z,0.65
2018-02-19T08:53:37.216Z,1.05
2018-02-19T08:54:42.222Z,1.26
2018-02-19T08:55:46.897Z,1.33
2018-02-19T08:56:51.606Z,1.53
2018-02-19T08:57:56.584Z,1.50
2018-02-19T08:59:01.347Z,1.39
2018-02-19T09:00:07.070Z,1.22
2018-02-19T09:01:12.272Z,1.34
2018-02-19T09:02:17.058Z,1.21
2018-02-19T09:03:21.892Z,1.28
2018-02-19T09:04:26.797Z,1.35
2018-02-19T09:05:32.200Z,1.64
2018-02-19T09:06:37.085Z,1.42
2018-02-19T09:07:42.857Z,1.29
2018-02-19T09:08:47.580Z,1.27
2018-02-19T09:09:52.263Z,1.24
2018-02-19T09:10:57.414Z,1.24
2018-02-19T09:12:02.201Z,1.36
2018-02-19T09:13:06.944Z,1.49
2018-02-19T09:14:12.129Z,1.43
2018-02-19T09:15:16.820Z,1.40
2018-02-19T09:16:21.588Z,1.28
2018-02-19T09:17:26.386Z,1.66
2018-02-19T09:18:31.220Z,1.67
2018-02-19T09:19:36.012Z,1.37
2018-02-19T09:20:40.799Z,1.36
2018-02-19T09:21:45.606Z,1.37
2018-02-19T09:22:50.396Z,1.37
2018-02-19T09:23:55.164Z,1.27
2018-02-19T09:24:59.931Z,1.36
2018-02-19T09:26:05.053Z,1.56
2018-02-19T09:27:09.788Z,1.46
2018-02-19T09:28:14.567Z,1.37
2018-02-19T09:29:19.447Z,1.54
2018-02-19T09:30:24.161Z,1.54
2018-02-19T09:31:28.845Z,1.40
2018-02-19T09:32:33.783Z,0.79
2018-02-19T09:33:38.990Z,0.60
2018-02-19T09:34:43.621Z,0.76
2018-02-19T09:35:48.269Z,0.81
2018-02-19T09:36:52.882Z,0.89
2018-02-19T09:37:57.487Z,0.75
2018-02-19T09:39:02.609Z,0.83
2018-02-19T09:40:07.365Z,0.79
2018-02-19T09:41:12.161Z,0.79
2018-02-19T09:42:16.839Z,0.63
2018-02-19T09:43:21.583Z,0.51
2018-02-19T09:44:26.395Z,0.51
2018-02-19T09:45:31.585Z,0.78
2018-02-19T09:46:36.300Z,0.88
2018-02-19T09:47:41.056Z,1.20
2018-02-19T09:48:45.806Z,1.20
2018-02-19T09:49:50.479Z,1.41
2018-02-19T09:50:55.306Z,1.85
2018-02-19T09:52:00.519Z,2.10
2018-02-19T09:53:05.224Z,1.99
2018-02-19T09:54:10.622Z,2.55
2018-02-19T09:55:15.314Z,2.46
2018-02-19T09:56:20.227Z,2.26
2018-02-19T09:57:24.945Z,2.22
2018-02-19T09:58:30.188Z,2.09
2018-02-19T09:59:35.032Z,2.08
2018-02-19T10:00:39.776Z,2.08
2018-02-19T10:01:44.515Z,2.05
2018-02-19T10:02:49.114Z,2.29
2018-02-19T10:03:53.758Z,2.56
2018-02-19T10:04:58.783Z,2.55
2018-02-19T10:06:03.697Z,2.09
2018-02-19T10:07:08.431Z,2.20
2018-02-19T10:08:13.265Z,2.36
2018-02-19T10:09:17.956Z,2.75
2018-02-19T10:10:22.772Z,2.88
2018-02-19T10:11:27.987Z,3.14
2018-02-19T10:12:32.717Z,3.57
2018-02-19T10:13:37.536Z,2.72
2018-02-19T10:14:42.344Z,2.31
2018-02-19T10:15:47.216Z,2.33
2018-02-19T10:16:52.041Z,2.00
2018-02-19T10:17:57.267Z,1.85
2018-02-19T10:19:02.184Z,1.45
2018-02-19T10:20:07.006Z,1.33
2018-02-19T10:21:11.860Z,1.55
2018-02-19T10:22:17.127Z,1.75
2018-02-19T10:23:21.892Z,1.67
2018-02-19T10:24:27.116Z,1.59
2018-02-19T10:25:31.912Z,1.67
2018-02-19T10:26:36.735Z,1.62
2018-02-19T10:27:41.526Z,1.73
2018-02-19T10:28:46.440Z,1.93
2018-02-19T10:29:51.216Z,2.07
2018-02-19T10:30:56.859Z,2.07
2018-02-19T10:32:01.713Z,2.00
2018-02-19T10:33:06.473Z,2.01
2018-02-19T10:34:11.261Z,1.84
2018-02-19T10:35:16.047Z,1.94
2018-02-19T10:36:20.814Z,2.09
2018-02-19T10:37:26.025Z,1.87
2018-02-19T10:38:30.945Z,1.72
2018-02-19T10:39:35.709Z,2.02
2018-02-19T10:40:40.474Z,2.40
2018-02-19T10:41:45.283Z,2.20
2018-02-19T10:42:50.065Z,2.03
2018-02-19T10:43:55.364Z,2.42
2018-02-19T10:45:00.211Z,2.57
2018-02-19T10:46:04.986Z,2.33
2018-02-19T10:47:09.762Z,2.56
2018-02-19T10:48:14.546Z,2.75
2018-02-19T10:49:19.380Z,2.80
2018-02-19T10:50:24.586Z,3.04
2018-02-19T10:51:29.378Z,3.17
2018-02-19T10:52:34.211Z,3.95
2018-02-19T10:53:39.536Z,4.47
2018-02-19T10:54:44.495Z,4.18
2018-02-19T10:55:49.361Z,3.71
2018-02-19T10:56:54.393Z,3.22
2018-02-19T10:57:59.044Z,3.14
2018-02-19T10:59:03.925Z,3.00
2018-02-19T11:00:08.715Z,3.05
2018-02-19T11:01:13.560Z,3.11
2018-02-19T11:02:18.376Z,3.68
2018-02-19T11:03:23.634Z,3.82
2018-02-19T11:04:29.054Z,3.51
2018-02-19T11:05:34.025Z,3.20
2018-02-19T11:06:38.963Z,3.17
2018-02-19T11:07:43.855Z,3.31
2018-02-19T11:08:48.746Z,3.14
2018-02-19T11:09:53.515Z,3.05
2018-02-19T11:10:58.436Z,2.93
2018-02-19T11:12:03.242Z,2.58
2018-02-19T11:13:08.016Z,2.78
2018-02-19T11:14:12.933Z,2.80
2018-02-19T11:15:17.731Z,2.79
2018-02-19T11:16:22.932Z,2.85
2018-02-19T11:17:27.955Z,2.43
2018-02-19T11:18:33.008Z,2.13
2018-02-19T11:19:37.885Z,2.22
2018-02-19T11:20:43.047Z,2.20
2018-02-19T11:21:47.908Z,2.25
2018-02-19T11:22:52.833Z,2.10
2018-02-19T11:23:57.688Z,2.31
2018-02-19T11:25:04.306Z,2.56
2018-02-19T11:26:09.181Z,3.15
2018-02-19T11:27:14.845Z,3.52
2018-02-19T11:28:20.837Z,3.69
2018-02-19T11:29:25.640Z,3.43
2018-02-19T11:30:30.331Z,3.43
2018-02-19T11:31:36.082Z,3.26
2018-02-19T11:32:41.002Z,3.98
2018-02-19T11:33:46.284Z,3.94
2018-02-19T11:34:51.904Z,3.29
2018-02-19T11:35:56.705Z,3.24
2018-02-19T11:37:01.602Z,3.12
2018-02-19T11:38:06.469Z,3.03
2018-02-19T11:39:11.216Z,2.80
2018-02-19T11:40:17.260Z,3.09
2018-02-19T11:41:22.590Z,3.04
2018-02-19T11:42:27.377Z,3.13
2018-02-19T11:43:32.200Z,3.10
2018-02-19T11:44:36.974Z,3.37
2018-02-19T11:45:41.835Z,3.67
2018-02-19T11:46:46.658Z,3.62
2018-02-19T11:47:53.005Z,3.60
2018-02-19T11:48:57.839Z,3.28
2018-02-19T11:50:02.771Z,3.16
2018-02-19T11:51:07.626Z,3.48
2018-02-19T11:52:12.397Z,3.42
2018-02-19T11:53:17.241Z,2.83
2018-02-19T11:54:22.557Z,2.47
2018-02-19T11:55:27.427Z,2.45
2018-02-19T11:56:32.280Z,2.57
2018-02-19T11:57:37.160Z,2.48
2018-02-19T11:58:42.096Z,2.34
2018-02-19T11:59:46.850Z,2.45
2018-02-19T12:00:52.054Z,2.57
2018-02-19T12:01:56.902Z,2.82
2018-02-19T12:03:01.650Z,2.85
2018-02-19T12:04:06.431Z,2.40
2018-02-19T12:05:12.063Z,2.19
2018-02-19T12:06:16.898Z,2.31
2018-02-19T12:07:22.430Z,2.32
2018-02-19T12:08:27.329Z,2.32
2018-02-19T12:09:32.146Z,2.55
2018-02-19T12:10:37.178Z,2.75
2018-02-19T12:11:42.058Z,2.99
2018-02-19T12:12:47.841Z,2.93
2018-02-19T12:13:52.938Z,2.79
2018-02-19T12:14:57.752Z,2.97
2018-02-19T12:16:02.673Z,3.17
2018-02-19T12:17:07.630Z,3.31
2018-02-19T12:18:12.431Z,3.50
2018-02-19T12:19:18.243Z,3.74
2018-02-19T12:20:23.158Z,3.70
2018-02-19T12:21:28.033Z,3.15
2018-02-19T12:22:32.868Z,3.00
2018-02-19T12:23:37.807Z,3.13
2018-02-19T12:24:42.795Z,3.31
2018-02-19T12:25:48.048Z,3.27
2018-02-19T12:26:53.066Z,3.45
2018-02-19T12:27:58.330Z,3.59
2018-02-19T12:29:03.823Z,3.71
2018-02-19T12:30:08.715Z,3.85
2018-02-19T12:31:13.622Z,4.01
2018-02-19T12:32:18.838Z,4.19
2018-02-19T12:33:23.540Z,4.16
2018-02-19T12:34:28.478Z,4.48
2018-02-19T12:35:33.952Z,4.61
2018-02-19T12:36:38.826Z,5.20
2018-02-19T12:37:44.006Z,5.26
2018-02-19T12:38:48.991Z,5.82
2018-02-19T12:39:53.963Z,5.80
2018-02-19T12:40:58.731Z,5.77
2018-02-19T12:42:04.501Z,5.55
2018-02-19T12:43:10.349Z,5.22
2018-02-19T12:44:15.914Z,5.01
2018-02-19T12:45:20.801Z,5.18
2018-02-19T12:46:26.103Z,5.14
2018-02-19T12:47:30.963Z,5.36
2018-02-19T12:48:35.988Z,5.88
2018-02-19T12:49:40.928Z,5.56
2018-02-19T12:50:46.652Z,5.12
2018-02-19T12:51:51.727Z,5.02
2018-02-19T12:52:56.660Z,5.76
2018-02-19T12:54:03.008Z,6.21
2018-02-19T12:55:08.468Z,5.64
2018-02-19T12:56:13.688Z,5.41
2018-02-19T12:57:18.965Z,4.95
2018-02-19T12:58:23.856Z,4.51
2018-02-19T12:59:29.605Z,4.00
2018-02-19T13:00:34.654Z,4.19
2018-02-19T13:01:39.879Z,4.45
2018-02-19T13:02:44.795Z,5.25
2018-02-19T13:03:50.089Z,5.54
2018-02-19T13:04:54.960Z,5.66
2018-02-19T13:05:59.876Z,5.35
2018-02-19T13:07:04.675Z,5.03
2018-02-19T13:08:09.578Z,5.50
2018-02-19T13:09:14.394Z,5.81
2018-02-19T13:10:19.341Z,6.14
2018-02-19T13:11:24.118Z,6.18
2018-02-19T13:12:29.393Z,5.66
2018-02-19T13:13:34.053Z,5.13
2018-02-19T13:14:40.053Z,5.44
2018-02-19T13:15:45.585Z,5.73
2018-02-19T13:16:51.146Z,5.37
2018-02-19T13:17:56.111Z,5.44
2018-02-19T13:19:00.915Z,4.89
2018-02-19T13:20:07.996Z,5.04
2018-02-19T13:21:12.847Z,4.96
2018-02-19T13:22:17.749Z,5.08
2018-02-19T13:23:23.024Z,4.94
2018-02-19T13:24:27.860Z,4.90
2018-02-19T13:25:32.760Z,5.13
2018-02-19T13:26:37.807Z,5.59
2018-02-19T13:27:43.495Z,5.69
2018-02-19T13:28:48.510Z,5.85
2018-02-19T13:29:53.387Z,5.60
2018-02-19T13:30:59.598Z,6.00
2018-02-19T13:32:04.456Z,6.74
2018-02-19T13:33:10.062Z,6.35
2018-02-19T13:34:17.790Z,5.89
2018-02-19T13:35:22.635Z,5.83
2018-02-19T13:36:27.504Z,6.30
2018-02-19T13:37:32.672Z,6.84
2018-02-19T13:38:38.298Z,7.00
2018-02-19T13:39:43.929Z,6.63
2018-02-19T13:40:49.636Z,5.73
2018-02-19T13:41:57.566Z,5.26
2018-02-19T13:43:04.757Z,5.29
2018-02-19T13:44:12.668Z,4.96
2018-02-19T13:45:18.661Z,5.03
2018-02-19T13:46:24.139Z,4.87
2018-02-19T13:47:30.791Z,4.92
2018-02-19T13:48:36.172Z,4.75
2018-02-19T13:49:41.034Z,4.52
2018-02-19T13:50:46.796Z,4.46
2018-02-19T13:51:53.415Z,4.34
2018-02-19T13:53:01.723Z,4.27
2018-02-19T13:54:08.788Z,4.41
2018-02-19T13:55:13.975Z,4.53
2018-02-19T13:56:20.361Z,4.00
2018-02-19T13:57:27.330Z,4.36
2018-02-19T13:58:33.912Z,4.55
2018-02-19T13:59:40.631Z,4.94
2018-02-19T14:00:45.817Z,5.09
2018-02-19T14:01:51.692Z,5.09
2018-02-19T14:02:58.204Z,5.08
2018-02-19T14:04:03.961Z,4.91
2018-02-19T14:05:09.342Z,4.65
2018-02-19T14:06:16.291Z,4.89
2018-02-19T14:07:23.882Z,5.30
2018-02-19T14:08:32.007Z,5.60
2018-02-19T14:09:40.755Z,5.81